createdAt,value
2023-11-23T00:03:20.713Z,0.64
2023-11-23T00:08:22.201Z,0.60
2023-11-23T00:13:23.652Z,0.61
2023-11-23T00:18:25.250Z,0.63
2023-11-23T00:23:26.803Z,0.66
2023-11-23T00:28:28.278Z,0.59
2023-11-23T00:33:29.895Z,0.62
2023-11-23T00:38:31.498Z,0.53
2023-11-23T00:43:32.977Z,0.48
2023-11-23T00:48:34.565Z,0.47
2023-11-23T00:53:36.139Z,0.43
2023-11-23T00:58:37.724Z,0.45
2023-11-23T01:03:39.915Z,0.49
2023-11-23T01:08:41.528Z,0.54
2023-11-23T01:13:43.107Z,0.57
2023-11-23T01:18:44.818Z,0.39
2023-11-23T01:23:46.889Z,0.40
2023-11-23T01:28:48.451Z,0.42
2023-11-23T01:33:49.980Z,0.39
2023-11-23T01:38:51.542Z,0.42
2023-11-23T01:43:53.100Z,0.39
2023-11-23T01:48:56.616Z,0.54
2023-11-23T01:53:59.292Z,0.44
2023-11-23T01:59:00.936Z,0.46
2023-11-23T02:04:03.032Z,0.55
2023-11-23T02:09:04.913Z,0.58
2023-11-23T02:14:07.891Z,0.66
2023-11-23T02:19:09.745Z,0.72
2023-11-23T02:24:12.861Z,0.52
2023-11-23T02:29:14.584Z,0.60
2023-11-23T02:34:16.070Z,0.65
2023-11-23T02:39:17.623Z,0.59
2023-11-23T02:44:19.181Z,0.57
2023-11-23T02:49:20.670Z,0.58
2023-11-23T02:54:22.232Z,0.52
2023-11-23T02:59:23.809Z,0.60
2023-11-23T03:04:25.380Z,0.58
2023-11-23T03:09:26.871Z,0.58
2023-11-23T03:14:28.561Z,0.72
2023-11-23T03:19:30.112Z,0.88
2023-11-23T03:24:32.123Z,0.97
2023-11-23T03:29:34.815Z,1.03
2023-11-23T03:34:36.265Z,1.09
2023-11-23T03:39:37.753Z,1.25
2023-11-23T03:44:39.253Z,1.21
2023-11-23T03:49:40.729Z,1.37
2023-11-23T03:54:42.232Z,1.29
2023-11-23T03:59:43.724Z,1.40
2023-11-23T04:04:45.187Z,1.42
2023-11-23T04:09:46.678Z,1.48
2023-11-23T04:14:48.229Z,1.49
2023-11-23T04:19:49.726Z,1.48
2023-11-23T04:24:51.254Z,1.64
2023-11-23T04:29:52.790Z,1.54
2023-11-23T04:34:54.272Z,1.66
2023-11-23T04:39:55.763Z,1.58
2023-11-23T04:44:57.243Z,1.63
2023-11-23T04:49:59.332Z,1.75
2023-11-23T04:55:00.835Z,1.86
2023-11-23T05:00:02.381Z,1.92
2023-11-23T05:05:04.256Z,1.92
2023-11-23T05:10:09.158Z,2.02
2023-11-23T05:15:11.214Z,2.16
2023-11-23T05:20:13.715Z,2.34
2023-11-23T05:25:15.928Z,2.38
2023-11-23T05:30:21.079Z,2.39
2023-11-23T05:35:22.617Z,2.42
2023-11-23T05:40:24.172Z,2.48
2023-11-23T05:45:26.792Z,2.48
2023-11-23T05:50:28.267Z,2.30
2023-11-23T05:55:29.844Z,2.40
2023-11-23T06:00:32.447Z,2.56
2023-11-23T06:05:34.132Z,2.88
2023-11-23T06:10:35.687Z,3.02
2023-11-23T06:15:37.144Z,3.13
2023-11-23T06:20:38.628Z,3.20
2023-11-23T06:25:40.471Z,3.18
2023-11-23T06:30:42.026Z,3.11
2023-11-23T06:35:44.158Z,3.42
2023-11-23T06:40:45.797Z,3.41
2023-11-23T06:45:47.461Z,3.41
2023-11-23T06:50:49.020Z,3.36
2023-11-23T06:55:50.482Z,3.56
2023-11-23T07:00:51.923Z,3.47
2023-11-23T07:05:53.402Z,3.74
2023-11-23T07:10:55.079Z,3.96
2023-11-23T07:15:56.550Z,3.95
2023-11-23T07:20:58.794Z,3.82
2023-11-23T07:26:00.326Z,3.69
2023-11-23T07:31:02.388Z,4.02
2023-11-23T07:36:05.074Z,3.91
2023-11-23T07:41:07.868Z,3.88
2023-11-23T07:46:10.334Z,4.06
2023-11-23T07:51:11.799Z,4.22
2023-11-23T07:56:15.972Z,4.19
2023-11-23T08:01:17.439Z,4.23
2023-11-23T08:06:20.631Z,4.18
2023-11-23T08:11:22.698Z,4.32
2023-11-23T08:16:24.469Z,4.32
2023-11-23T08:21:26.335Z,4.32
2023-11-23T08:26:29.293Z,4.43
2023-11-23T08:31:30.841Z,4.66
2023-11-23T08:36:32.407Z,4.72
2023-11-23T08:41:33.921Z,4.72
2023-11-23T08:46:36.290Z,4.92
2023-11-23T08:51:38.501Z,5.08
2023-11-23T08:56:39.964Z,5.25
2023-11-23T09:01:44.836Z,5.33
2023-11-23T09:06:48.651Z,5.14
2023-11-23T09:11:50.137Z,5.38
2023-11-23T09:16:51.678Z,5.35
2023-11-23T09:21:54.656Z,5.28
2023-11-23T09:26:56.120Z,5.62
2023-11-23T09:31:57.609Z,5.75
2023-11-23T09:36:59.399Z,5.96
2023-11-23T09:42:05.192Z,6.25
2023-11-23T09:47:07.200Z,6.15
2023-11-23T09:52:08.691Z,6.27
2023-11-23T09:57:10.237Z,6.48
2023-11-23T10:02:15.126Z,6.56
2023-11-23T10:07:17.930Z,6.81
2023-11-23T10:12:20.315Z,6.97
2023-11-23T10:17:22.051Z,7.00
2023-11-23T10:22:23.592Z,7.06
2023-11-23T10:27:25.150Z,6.99
2023-11-23T10:32:27.667Z,7.10
2023-11-23T10:37:30.649Z,7.03
2023-11-23T10:42:36.653Z,7.10
2023-11-23T10:47:39.481Z,7.04
2023-11-23T10:52:45.645Z,7.15
2023-11-23T10:57:57.285Z,7.37
2023-11-23T11:03:01.401Z,7.29
2023-11-23T11:08:06.410Z,7.56
2023-11-23T11:13:11.861Z,7.71
2023-11-23T11:18:13.464Z,7.89
2023-11-23T11:23:15.244Z,7.69
2023-11-23T11:28:16.759Z,8.15
2023-11-23T11:33:19.158Z,8.05
2023-11-23T11:38:20.769Z,7.93
2023-11-23T11:43:22.494Z,7.87
2023-11-23T11:48:24.064Z,7.89
2023-11-23T11:53:26.007Z,7.84
2023-11-23T11:58:28.025Z,7.77
2023-11-23T12:03:29.569Z,7.77
2023-11-23T12:08:37.840Z,7.42
2023-11-23T12:13:39.310Z,7.59
2023-11-23T12:18:41.992Z,7.53
2023-11-23T12:23:44.633Z,7.44
2023-11-23T12:28:50.501Z,7.25
2023-11-23T12:33:51.965Z,7.09
2023-11-23T12:38:53.533Z,6.99
2023-11-23T12:43:55.066Z,7.02
2023-11-23T12:48:56.570Z,6.95
2023-11-23T12:53:58.302Z,6.84
2023-11-23T12:58:59.761Z,7.10
2023-11-23T13:04:04.893Z,6.80
2023-11-23T13:09:13.005Z,6.87
2023-11-23T13:14:16.708Z,6.90
2023-11-23T13:19:27.028Z,6.82
2023-11-23T13:24:37.816Z,6.91
2023-11-23T13:29:39.653Z,6.96
2023-11-23T13:34:41.751Z,7.03
2023-11-23T13:39:43.309Z,6.90
2023-11-23T13:44:45.875Z,7.03
2023-11-23T13:49:47.368Z,6.98
2023-11-23T13:54:49.315Z,7.06
2023-11-23T13:59:51.012Z,7.01
2023-11-23T14:04:52.855Z,7.28
2023-11-23T14:09:54.309Z,6.88
2023-11-23T14:14:55.900Z,6.97
2023-11-23T14:19:59.435Z,6.92
2023-11-23T14:25:01.836Z,6.79
2023-11-23T14:30:04.847Z,7.11
2023-11-23T14:35:07.761Z,7.27
2023-11-23T14:40:20.113Z,7.18
2023-11-23T14:45:22.957Z,7.05
2023-11-23T14:50:29.488Z,7.03
2023-11-23T14:55:31.216Z,7.09
2023-11-23T15:00:32.717Z,6.94
2023-11-23T15:05:34.208Z,6.95
2023-11-23T15:10:35.774Z,7.02
2023-11-23T15:15:37.418Z,6.92
2023-11-23T15:20:40.228Z,6.99
2023-11-23T15:25:46.957Z,6.96
2023-11-23T15:30:48.772Z,6.92
2023-11-23T15:35:50.705Z,6.92
2023-11-23T15:40:52.232Z,6.87
2023-11-23T15:45:53.735Z,7.01
2023-11-23T15:50:55.252Z,6.95
2023-11-23T15:55:56.745Z,6.99
2023-11-23T16:00:58.265Z,7.00
2023-11-23T16:05:59.864Z,7.28
2023-11-23T16:11:01.800Z,7.41
2023-11-23T16:16:03.338Z,7.54
2023-11-23T16:21:06.550Z,7.51
2023-11-23T16:26:08.072Z,7.81
2023-11-23T16:31:09.567Z,7.73
2023-11-23T16:36:26.397Z,7.65
2023-11-23T16:41:35.088Z,7.69
2023-11-23T16:46:36.586Z,7.76
2023-11-23T16:51:39.180Z,7.69
2023-11-23T16:56:40.666Z,7.64
2023-11-23T17:01:42.296Z,7.64
2023-11-23T17:06:45.359Z,7.55
2023-11-23T17:11:50.859Z,7.59
2023-11-23T17:16:53.332Z,7.59
2023-11-23T17:21:57.866Z,7.71
2023-11-23T17:26:59.409Z,7.75
2023-11-23T17:32:04.532Z,7.93
2023-11-23T17:37:06.091Z,7.96
2023-11-23T17:42:07.808Z,7.82
2023-11-23T17:47:09.463Z,7.87
2023-11-23T17:52:11.747Z,8.13
2023-11-23T17:57:13.314Z,8.34
2023-11-23T18:02:19.936Z,8.33
2023-11-23T18:07:21.692Z,8.53
2023-11-23T18:12:23.691Z,8.51
2023-11-23T18:17:25.241Z,8.70
2023-11-23T18:22:26.947Z,8.86
2023-11-23T18:27:28.466Z,8.66
2023-11-23T18:32:33.282Z,8.61
2023-11-23T18:37:34.955Z,8.40
2023-11-23T18:42:40.308Z,8.40
2023-11-23T18:47:45.398Z,8.21
2023-11-23T18:52:46.911Z,8.54
2023-11-23T18:57:48.418Z,8.31
2023-11-23T19:02:51.333Z,8.40
2023-11-23T19:07:53.350Z,8.27
2023-11-23T19:13:03.497Z,8.35
2023-11-23T19:18:09.004Z,8.26
2023-11-23T19:23:11.302Z,8.30
2023-11-23T19:28:13.240Z,8.08
2023-11-23T19:33:15.071Z,8.28
2023-11-23T19:38:16.753Z,8.16
2023-11-23T19:43:18.632Z,8.25
2023-11-23T19:48:20.473Z,8.47
2023-11-23T19:53:26.815Z,8.42
2023-11-23T19:58:28.359Z,8.28
2023-11-23T20:03:29.927Z,8.19
2023-11-23T20:08:32.602Z,8.27
2023-11-23T20:13:34.167Z,8.51
2023-11-23T20:18:35.771Z,8.59
2023-11-23T20:23:39.578Z,8.88
2023-11-23T20:28:41.171Z,9.16
2023-11-23T20:33:42.793Z,9.24
2023-11-23T20:38:45.244Z,9.13
2023-11-23T20:43:46.742Z,9.03
2023-11-23T20:48:50.942Z,9.05
2023-11-23T20:53:53.795Z,9.13
2023-11-23T20:58:59.661Z,9.29
2023-11-23T21:04:01.803Z,9.36
2023-11-23T21:09:04.562Z,9.32
2023-11-23T21:14:08.249Z,9.31
2023-11-23T21:19:09.835Z,9.30
2023-11-23T21:24:11.645Z,9.29
2023-11-23T21:29:13.192Z,9.46
2023-11-23T21:34:14.881Z,9.57
2023-11-23T21:39:17.314Z,9.58
2023-11-23T21:44:20.393Z,9.54
2023-11-23T21:49:21.990Z,9.52
2023-11-23T21:54:23.503Z,9.51
2023-11-23T21:59:26.687Z,9.44
2023-11-23T22:04:28.141Z,9.40
2023-11-23T22:09:31.505Z,9.26
2023-11-23T22:14:33.144Z,9.25
2023-11-23T22:19:34.870Z,9.15
2023-11-23T22:24:36.753Z,9.09
2023-11-23T22:29:38.288Z,9.31
2023-11-23T22:34:40.357Z,9.30
2023-11-23T22:39:42.220Z,9.15
2023-11-23T22:44:44.041Z,9.16
2023-11-23T22:49:45.526Z,9.26
2023-11-23T22:54:47.797Z,9.27
2023-11-23T22:59:49.335Z,9.19
2023-11-23T23:04:52.581Z,9.45
2023-11-23T23:09:54.253Z,9.60
2023-11-23T23:14:55.759Z,9.41
2023-11-23T23:19:57.218Z,9.52
2023-11-23T23:24:58.799Z,9.29
2023-11-23T23:30:00.309Z,9.11
2023-11-23T23:35:01.736Z,8.86
2023-11-23T23:40:05.670Z,8.70
2023-11-23T23:45:07.672Z,8.37
2023-11-23T23:50:09.500Z,7.96
2023-11-23T23:55:11.084Z,7.90
